sensor_id;sensor_type;location;lat;lon;timestamp;temperature;humidity
12125;DHT22;6126;57.908;16.490;2023-05-07T00:00:21;0.30;78.90
12125;DHT22;6126;57.908;16.490;2023-05-07T00:02:48;0.50;79.20
12125;DHT22;6126;57.908;16.490;2023-05-07T00:05:14;0.30;79.10
12125;DHT22;6126;57.908;16.490;2023-05-07T00:07:40;0.30;79.20
12125;DHT22;6126;57.908;16.490;2023-05-07T00:10:06;0.50;79.30
12125;DHT22;6126;57.908;16.490;2023-05-07T00:12:33;0.50;79.40
12125;DHT22;6126;57.908;16.490;2023-05-07T00:15:01;0.30;79.20
12125;DHT22;6126;57.908;16.490;2023-05-07T00:17:28;0.10;79.10
12125;DHT22;6126;57.908;16.490;2023-05-07T00:19:55;0.20;79.30
12125;DHT22;6126;57.908;16.490;2023-05-07T00:22:20;0.20;79.30
12125;DHT22;6126;57.908;16.490;2023-05-07T00:24:46;0.40;79.60
12125;DHT22;6126;57.908;16.490;2023-05-07T00:27:12;0.20;79.30
12125;DHT22;6126;57.908;16.490;2023-05-07T00:29:38;0.20;79.30
12125;DHT22;6126;57.908;16.490;2023-05-07T00:32:04;0.00;79.20
12125;DHT22;6126;57.908;16.490;2023-05-07T00:34:30;0.20;79.50
12125;DHT22;6126;57.908;16.490;2023-05-07T00:36:56;0.30;79.60
12125;DHT22;6126;57.908;16.490;2023-05-07T00:39:22;0.50;79.80
12125;DHT22;6126;57.908;16.490;2023-05-07T00:41:48;0.30;79.60
12125;DHT22;6126;57.908;16.490;2023-05-07T00:44:14;0.10;79.50
12125;DHT22;6126;57.908;16.490;2023-05-07T00:46:40;0.20;79.80
12125;DHT22;6126;57.908;16.490;2023-05-07T00:49:06;0.30;79.80
12125;DHT22;6126;57.908;16.490;2023-05-07T00:51:33;0.00;79.70
12125;DHT22;6126;57.908;16.490;2023-05-07T00:54:00;0.00;79.70
12125;DHT22;6126;57.908;16.490;2023-05-07T00:56:28;0.20;80.00
12125;DHT22;6126;57.908;16.490;2023-05-07T00:58:55;0.10;79.70
12125;DHT22;6126;57.908;16.490;2023-05-07T01:01:21;0.00;79.50
12125;DHT22;6126;57.908;16.490;2023-05-07T01:03:46;0.30;80.10
12125;DHT22;6126;57.908;16.490;2023-05-07T01:06:13;0.30;80.20
12125;DHT22;6126;57.908;16.490;2023-05-07T01:08:42;0.10;80.00
12125;DHT22;6126;57.908;16.490;2023-05-07T01:11:08;0.20;80.00
12125;DHT22;6126;57.908;16.490;2023-05-07T01:13:36;0.00;79.90
12125;DHT22;6126;57.908;16.490;2023-05-07T01:16:04;0.00;80.00
12125;DHT22;6126;57.908;16.490;2023-05-07T01:18:30;-0.20;79.90
12125;DHT22;6126;57.908;16.490;2023-05-07T01:20:58;0.00;80.20
12125;DHT22;6126;57.908;16.490;2023-05-07T01:23:27;-0.10;80.10
12125;DHT22;6126;57.908;16.490;2023-05-07T01:25:54;-0.20;80.10
12125;DHT22;6126;57.908;16.490;2023-05-07T01:28:20;-0.40;79.90
12125;DHT22;6126;57.908;16.490;2023-05-07T01:30:50;-0.40;80.90
12125;DHT22;6126;57.908;16.490;2023-05-07T01:33:22;-0.20;80.60
12125;DHT22;6126;57.908;16.490;2023-05-07T01:35:52;-0.40;80.50
12125;DHT22;6126;57.908;16.490;2023-05-07T01:38:20;-0.40;80.50
12125;DHT22;6126;57.908;16.490;2023-05-07T01:40:47;-0.40;80.50
12125;DHT22;6126;57.908;16.490;2023-05-07T01:43:13;-0.40;80.60
12125;DHT22;6126;57.908;16.490;2023-05-07T01:45:40;-0.50;80.60
12125;DHT22;6126;57.908;16.490;2023-05-07T01:48:07;-0.50;80.60
12125;DHT22;6126;57.908;16.490;2023-05-07T01:50:35;-0.40;80.70
12125;DHT22;6126;57.908;16.490;2023-05-07T01:53:02;-0.30;80.90
12125;DHT22;6126;57.908;16.490;2023-05-07T01:55:28;-0.40;80.90
12125;DHT22;6126;57.908;16.490;2023-05-07T01:57:54;-0.50;80.70
12125;DHT22;6126;57.908;16.490;2023-05-07T02:00:20;-0.60;80.90
12125;DHT22;6126;57.908;16.490;2023-05-07T02:02:46;-0.60;80.90
12125;DHT22;6126;57.908;16.490;2023-05-07T02:05:12;-0.80;80.90
12125;DHT22;6126;57.908;16.490;2023-05-07T02:07:38;-0.60;81.10
12125;DHT22;6126;57.908;16.490;2023-05-07T02:10:04;-0.80;81.10
12125;DHT22;6126;57.908;16.490;2023-05-07T02:12:31;-0.80;81.00
12125;DHT22;6126;57.908;16.490;2023-05-07T02:14:57;-0.80;81.90
12125;DHT22;6126;57.908;16.490;2023-05-07T02:17:23;-0.50;81.30
12125;DHT22;6126;57.908;16.490;2023-05-07T02:19:49;-0.80;81.00
12125;DHT22;6126;57.908;16.490;2023-05-07T02:22:15;-0.80;81.10
12125;DHT22;6126;57.908;16.490;2023-05-07T02:24:41;-0.80;81.30
12125;DHT22;6126;57.908;16.490;2023-05-07T02:27:06;-0.90;81.30
12125;DHT22;6126;57.908;16.490;2023-05-07T02:29:32;-0.90;81.30
12125;DHT22;6126;57.908;16.490;2023-05-07T02:31:58;-0.80;81.70
12125;DHT22;6126;57.908;16.490;2023-05-07T02:34:24;-1.00;81.60
12125;DHT22;6126;57.908;16.490;2023-05-07T02:36:50;-0.90;81.80
12125;DHT22;6126;57.908;16.490;2023-05-07T02:39:16;-0.90;81.70
12125;DHT22;6126;57.908;16.490;2023-05-07T02:41:42;-1.00;81.60
12125;DHT22;6126;57.908;16.490;2023-05-07T02:44:08;-0.80;81.70
12125;DHT22;6126;57.908;16.490;2023-05-07T02:46:34;-0.90;81.80
12125;DHT22;6126;57.908;16.490;2023-05-07T02:49:00;-0.70;81.80
12125;DHT22;6126;57.908;16.490;2023-05-07T02:51:26;-0.70;81.80
12125;DHT22;6126;57.908;16.490;2023-05-07T02:53:52;-0.80;81.70
12125;DHT22;6126;57.908;16.490;2023-05-07T02:56:18;-0.80;81.70
12125;DHT22;6126;57.908;16.490;2023-05-07T02:58:44;-0.80;81.70
12125;DHT22;6126;57.908;16.490;2023-05-07T03:01:10;-0.70;81.80
12125;DHT22;6126;57.908;16.490;2023-05-07T03:03:36;-1.00;81.60
12125;DHT22;6126;57.908;16.490;2023-05-07T03:06:02;-0.80;81.90
12125;DHT22;6126;57.908;16.490;2023-05-07T03:08:28;-0.90;81.70
12125;DHT22;6126;57.908;16.490;2023-05-07T03:10:54;-1.10;81.80
12125;DHT22;6126;57.908;16.490;2023-05-07T03:13:20;-1.10;81.90
12125;DHT22;6126;57.908;16.490;2023-05-07T03:15:46;-0.90;82.20
12125;DHT22;6126;57.908;16.490;2023-05-07T03:18:12;-1.00;82.40
12125;DHT22;6126;57.908;16.490;2023-05-07T03:20:38;-1.00;82.40
12125;DHT22;6126;57.908;16.490;2023-05-07T03:23:04;-1.00;82.30
12125;DHT22;6126;57.908;16.490;2023-05-07T03:25:31;-1.00;82.30
12125;DHT22;6126;57.908;16.490;2023-05-07T03:27:57;-1.10;82.30
12125;DHT22;6126;57.908;16.490;2023-05-07T03:30:24;-1.10;82.30
12125;DHT22;6126;57.908;16.490;2023-05-07T03:32:50;-1.00;82.40
12125;DHT22;6126;57.908;16.490;2023-05-07T03:35:16;-1.00;82.50
12125;DHT22;6126;57.908;16.490;2023-05-07T03:37:42;-1.10;82.40
12125;DHT22;6126;57.908;16.490;2023-05-07T03:40:08;-0.70;82.70
12125;DHT22;6126;57.908;16.490;2023-05-07T03:42:35;-0.80;82.70
12125;DHT22;6126;57.908;16.490;2023-05-07T03:45:02;-0.90;82.60
12125;DHT22;6126;57.908;16.490;2023-05-07T03:47:28;-0.80;82.60
12125;DHT22;6126;57.908;16.490;2023-05-07T03:49:54;-0.70;82.70
12125;DHT22;6126;57.908;16.490;2023-05-07T03:52:20;-0.80;82.60
12125;DHT22;6126;57.908;16.490;2023-05-07T03:54:52;-0.60;82.90
12125;DHT22;6126;57.908;16.490;2023-05-07T03:57:18;-0.70;82.80
12125;DHT22;6126;57.908;16.490;2023-05-07T03:59:44;-0.90;82.60
12125;DHT22;6126;57.908;16.490;2023-05-07T04:02:10;-0.60;83.00
12125;DHT22;6126;57.908;16.490;2023-05-07T04:04:36;-0.70;82.80
12125;DHT22;6126;57.908;16.490;2023-05-07T04:07:02;-0.80;82.80
12125;DHT22;6126;57.908;16.490;2023-05-07T04:09:28;-0.60;83.10
12125;DHT22;6126;57.908;16.490;2023-05-07T04:11:54;-0.50;83.00
12125;DHT22;6126;57.908;16.490;2023-05-07T04:14:20;-0.50;82.90
12125;DHT22;6126;57.908;16.490;2023-05-07T04:16:46;-0.30;82.90
12125;DHT22;6126;57.908;16.490;2023-05-07T04:19:11;-0.40;82.80
12125;DHT22;6126;57.908;16.490;2023-05-07T04:21:37;-0.10;83.10
12125;DHT22;6126;57.908;16.490;2023-05-07T04:24:03;0.70;82.80
12125;DHT22;6126;57.908;16.490;2023-05-07T04:26:30;1.30;82.20
12125;DHT22;6126;57.908;16.490;2023-05-07T04:28:57;1.60;81.60
12125;DHT22;6126;57.908;16.490;2023-05-07T04:31:24;2.20;81.20
12125;DHT22;6126;57.908;16.490;2023-05-07T04:33:50;2.80;80.60
12125;DHT22;6126;57.908;16.490;2023-05-07T04:36:17;2.60;79.50
12125;DHT22;6126;57.908;16.490;2023-05-07T04:38:43;2.40;79.50
12125;DHT22;6126;57.908;16.490;2023-05-07T04:41:09;2.40;79.70
12125;DHT22;6126;57.908;16.490;2023-05-07T04:43:35;2.40;80.00
12125;DHT22;6126;57.908;16.490;2023-05-07T04:46:01;2.00;80.10
12125;DHT22;6126;57.908;16.490;2023-05-07T04:48:27;2.00;80.50
12125;DHT22;6126;57.908;16.490;2023-05-07T04:50:54;2.10;81.10
12125;DHT22;6126;57.908;16.490;2023-05-07T04:53:19;2.20;81.40
12125;DHT22;6126;57.908;16.490;2023-05-07T04:55:46;1.90;81.30
12125;DHT22;6126;57.908;16.490;2023-05-07T04:58:12;2.20;81.70
12125;DHT22;6126;57.908;16.490;2023-05-07T05:00:39;2.30;81.90
12125;DHT22;6126;57.908;16.490;2023-05-07T05:03:06;2.30;81.80
12125;DHT22;6126;57.908;16.490;2023-05-07T05:05:32;2.30;81.80
12125;DHT22;6126;57.908;16.490;2023-05-07T05:07:58;2.30;81.70
12125;DHT22;6126;57.908;16.490;2023-05-07T05:10:24;2.40;81.90
12125;DHT22;6126;57.908;16.490;2023-05-07T05:12:51;2.60;82.10
12125;DHT22;6126;57.908;16.490;2023-05-07T05:15:16;2.80;82.30
12125;DHT22;6126;57.908;16.490;2023-05-07T05:17:42;3.00;82.20
12125;DHT22;6126;57.908;16.490;2023-05-07T05:20:08;3.20;82.30
12125;DHT22;6126;57.908;16.490;2023-05-07T05:22:38;3.40;82.00
12125;DHT22;6126;57.908;16.490;2023-05-07T05:25:04;3.80;81.90
12125;DHT22;6126;57.908;16.490;2023-05-07T05:27:30;3.90;81.90
12125;DHT22;6126;57.908;16.490;2023-05-07T05:29:56;3.80;81.60
12125;DHT22;6126;57.908;16.490;2023-05-07T05:32:22;3.90;81.50
12125;DHT22;6126;57.908;16.490;2023-05-07T05:34:48;4.10;81.70
12125;DHT22;6126;57.908;16.490;2023-05-07T05:37:14;4.30;81.50
12125;DHT22;6126;57.908;16.490;2023-05-07T05:39:40;4.40;81.50
12125;DHT22;6126;57.908;16.490;2023-05-07T05:42:06;4.60;81.50
12125;DHT22;6126;57.908;16.490;2023-05-07T05:44:32;4.80;81.80
12125;DHT22;6126;57.908;16.490;2023-05-07T05:46:58;4.40;81.30
12125;DHT22;6126;57.908;16.490;2023-05-07T05:49:25;4.60;81.30
12125;DHT22;6126;57.908;16.490;2023-05-07T05:51:51;4.80;82.40
12125;DHT22;6126;57.908;16.490;2023-05-07T05:54:17;5.00;81.80
12125;DHT22;6126;57.908;16.490;2023-05-07T05:56:43;5.30;81.90
12125;DHT22;6126;57.908;16.490;2023-05-07T05:59:08;5.20;81.60
12125;DHT22;6126;57.908;16.490;2023-05-07T06:01:35;5.40;81.70
12125;DHT22;6126;57.908;16.490;2023-05-07T06:04:01;5.40;81.60
12125;DHT22;6126;57.908;16.490;2023-05-07T06:06:27;5.60;81.70
12125;DHT22;6126;57.908;16.490;2023-05-07T06:08:53;5.60;82.20
12125;DHT22;6126;57.908;16.490;2023-05-07T06:11:19;5.90;81.60
12125;DHT22;6126;57.908;16.490;2023-05-07T06:13:45;5.80;81.30
12125;DHT22;6126;57.908;16.490;2023-05-07T06:16:11;6.00;80.80
12125;DHT22;6126;57.908;16.490;2023-05-07T06:18:37;6.00;81.10
12125;DHT22;6126;57.908;16.490;2023-05-07T06:21:03;6.40;81.30
12125;DHT22;6126;57.908;16.490;2023-05-07T06:23:29;6.30;81.10
12125;DHT22;6126;57.908;16.490;2023-05-07T06:25:55;6.30;81.40
12125;DHT22;6126;57.908;16.490;2023-05-07T06:28:21;6.50;81.30
12125;DHT22;6126;57.908;16.490;2023-05-07T06:30:47;6.40;81.10
12125;DHT22;6126;57.908;16.490;2023-05-07T06:33:15;6.80;81.40
12125;DHT22;6126;57.908;16.490;2023-05-07T06:35:41;6.40;80.30
12125;DHT22;6126;57.908;16.490;2023-05-07T06:38:07;6.60;81.00
12125;DHT22;6126;57.908;16.490;2023-05-07T06:40:33;6.60;81.00
12125;DHT22;6126;57.908;16.490;2023-05-07T06:42:59;6.80;81.20
12125;DHT22;6126;57.908;16.490;2023-05-07T06:45:24;6.50;80.80
12125;DHT22;6126;57.908;16.490;2023-05-07T06:47:50;6.70;81.10
12125;DHT22;6126;57.908;16.490;2023-05-07T06:50:16;7.00;81.20
12125;DHT22;6126;57.908;16.490;2023-05-07T06:52:42;7.10;81.10
12125;DHT22;6126;57.908;16.490;2023-05-07T06:55:08;7.10;81.10
12125;DHT22;6126;57.908;16.490;2023-05-07T06:57:34;7.30;81.10
12125;DHT22;6126;57.908;16.490;2023-05-07T07:00:00;7.30;80.90
12125;DHT22;6126;57.908;16.490;2023-05-07T07:02:26;7.30;80.70
12125;DHT22;6126;57.908;16.490;2023-05-07T07:04:52;7.50;80.70
12125;DHT22;6126;57.908;16.490;2023-05-07T07:07:18;7.50;80.60
12125;DHT22;6126;57.908;16.490;2023-05-07T07:09:43;7.50;80.50
12125;DHT22;6126;57.908;16.490;2023-05-07T07:12:09;7.50;80.10
12125;DHT22;6126;57.908;16.490;2023-05-07T07:14:35;7.60;80.50
12125;DHT22;6126;57.908;16.490;2023-05-07T07:17:01;7.60;80.40
12125;DHT22;6126;57.908;16.490;2023-05-07T07:19:27;7.80;80.40
12125;DHT22;6126;57.908;16.490;2023-05-07T07:21:53;8.00;80.50
12125;DHT22;6126;57.908;16.490;2023-05-07T07:24:18;7.90;80.30
12125;DHT22;6126;57.908;16.490;2023-05-07T07:26:46;8.00;80.30
12125;DHT22;6126;57.908;16.490;2023-05-07T07:29:13;7.90;80.00
12125;DHT22;6126;57.908;16.490;2023-05-07T07:31:39;7.90;79.80
12125;DHT22;6126;57.908;16.490;2023-05-07T07:34:05;7.90;79.70
12125;DHT22;6126;57.908;16.490;2023-05-07T07:36:31;8.20;80.00
12125;DHT22;6126;57.908;16.490;2023-05-07T07:38:57;8.10;79.40
12125;DHT22;6126;57.908;16.490;2023-05-07T07:41:22;8.00;79.50
12125;DHT22;6126;57.908;16.490;2023-05-07T07:43:48;8.10;79.50
12125;DHT22;6126;57.908;16.490;2023-05-07T07:46:14;8.50;79.60
12125;DHT22;6126;57.908;16.490;2023-05-07T07:48:40;8.30;79.20
12125;DHT22;6126;57.908;16.490;2023-05-07T07:51:06;8.30;79.00
12125;DHT22;6126;57.908;16.490;2023-05-07T07:53:32;8.30;78.70
12125;DHT22;6126;57.908;16.490;2023-05-07T07:55:57;8.70;78.90
12125;DHT22;6126;57.908;16.490;2023-05-07T07:58:23;8.60;78.60
12125;DHT22;6126;57.908;16.490;2023-05-07T08:00:50;8.80;78.60
12125;DHT22;6126;57.908;16.490;2023-05-07T08:03:16;8.70;78.40
12125;DHT22;6126;57.908;16.490;2023-05-07T08:05:42;9.00;78.40
12125;DHT22;6126;57.908;16.490;2023-05-07T08:08:09;9.20;78.20
12125;DHT22;6126;57.908;16.490;2023-05-07T08:10:35;9.30;78.00
12125;DHT22;6126;57.908;16.490;2023-05-07T08:13:03;9.30;77.70
12125;DHT22;6126;57.908;16.490;2023-05-07T08:15:30;9.60;77.80
12125;DHT22;6126;57.908;16.490;2023-05-07T08:17:57;9.50;77.50
12125;DHT22;6126;57.908;16.490;2023-05-07T08:20:25;9.60;77.50
12125;DHT22;6126;57.908;16.490;2023-05-07T08:22:51;9.50;77.20
12125;DHT22;6126;57.908;16.490;2023-05-07T08:25:17;9.70;77.20
12125;DHT22;6126;57.908;16.490;2023-05-07T08:27:43;9.90;77.10
12125;DHT22;6126;57.908;16.490;2023-05-07T08:30:10;9.80;76.80
12125;DHT22;6126;57.908;16.490;2023-05-07T08:32:37;10.10;75.70
12125;DHT22;6126;57.908;16.490;2023-05-07T08:35:03;10.00;75.40
12125;DHT22;6126;57.908;16.490;2023-05-07T08:37:29;10.00;75.20
12125;DHT22;6126;57.908;16.490;2023-05-07T08:39:55;10.10;75.00
12125;DHT22;6126;57.908;16.490;2023-05-07T08:42:23;10.40;75.10
12125;DHT22;6126;57.908;16.490;2023-05-07T08:44:51;10.10;74.60
12125;DHT22;6126;57.908;16.490;2023-05-07T08:47:22;10.20;74.50
12125;DHT22;6126;57.908;16.490;2023-05-07T08:49:53;10.50;74.60
12125;DHT22;6126;57.908;16.490;2023-05-07T08:52:20;10.50;74.60
12125;DHT22;6126;57.908;16.490;2023-05-07T08:54:46;10.60;74.30
12125;DHT22;6126;57.908;16.490;2023-05-07T08:57:13;10.60;73.90
12125;DHT22;6126;57.908;16.490;2023-05-07T08:59:40;10.90;74.00
12125;DHT22;6126;57.908;16.490;2023-05-07T09:02:09;10.80;73.90
12125;DHT22;6126;57.908;16.490;2023-05-07T09:04:36;10.80;73.60
12125;DHT22;6126;57.908;16.490;2023-05-07T09:07:03;11.10;73.60
12125;DHT22;6126;57.908;16.490;2023-05-07T09:09:32;11.10;73.10
12125;DHT22;6126;57.908;16.490;2023-05-07T09:11:59;11.10;72.90
12125;DHT22;6126;57.908;16.490;2023-05-07T09:14:26;11.20;72.70
12125;DHT22;6126;57.908;16.490;2023-05-07T09:16:55;11.40;72.50
12125;DHT22;6126;57.908;16.490;2023-05-07T09:19:26;11.30;72.30
12125;DHT22;6126;57.908;16.490;2023-05-07T09:22:02;11.00;72.20
12125;DHT22;6126;57.908;16.490;2023-05-07T09:24:29;11.00;72.20
12125;DHT22;6126;57.908;16.490;2023-05-07T09:27:01;11.10;72.20
12125;DHT22;6126;57.908;16.490;2023-05-07T09:29:28;11.00;72.00
12125;DHT22;6126;57.908;16.490;2023-05-07T09:31:56;11.10;71.90
12125;DHT22;6126;57.908;16.490;2023-05-07T09:34:21;11.30;71.90
12125;DHT22;6126;57.908;16.490;2023-05-07T09:36:48;10.90;71.30
12125;DHT22;6126;57.908;16.490;2023-05-07T09:39:14;11.30;71.50
12125;DHT22;6126;57.908;16.490;2023-05-07T09:41:44;11.40;71.50
12125;DHT22;6126;57.908;16.490;2023-05-07T09:44:11;11.30;71.00
12125;DHT22;6126;57.908;16.490;2023-05-07T09:46:38;11.60;71.20
12125;DHT22;6126;57.908;16.490;2023-05-07T09:49:07;11.70;71.00
12125;DHT22;6126;57.908;16.490;2023-05-07T09:51:50;11.70;70.80
12125;DHT22;6126;57.908;16.490;2023-05-07T09:54:18;11.50;70.30
12125;DHT22;6126;57.908;16.490;2023-05-07T09:56:48;11.60;70.30
12125;DHT22;6126;57.908;16.490;2023-05-07T09:59:15;11.50;69.90
12125;DHT22;6126;57.908;16.490;2023-05-07T10:01:43;11.60;69.90
12125;DHT22;6126;57.908;16.490;2023-05-07T10:04:13;11.70;69.70
12125;DHT22;6126;57.908;16.490;2023-05-07T10:06:40;11.80;69.80
12125;DHT22;6126;57.908;16.490;2023-05-07T10:09:07;11.70;69.50
12125;DHT22;6126;57.908;16.490;2023-05-07T10:11:34;11.40;69.00
12125;DHT22;6126;57.908;16.490;2023-05-07T10:14:04;11.40;69.00
12125;DHT22;6126;57.908;16.490;2023-05-07T10:16:35;11.70;69.00
12125;DHT22;6126;57.908;16.490;2023-05-07T10:19:06;11.50;68.60
12125;DHT22;6126;57.908;16.490;2023-05-07T10:21:37;12.00;69.00
12125;DHT22;6126;57.908;16.490;2023-05-07T10:24:21;11.90;68.60
12125;DHT22;6126;57.908;16.490;2023-05-07T10:26:52;11.80;68.40
12125;DHT22;6126;57.908;16.490;2023-05-07T10:34:47;12.10;68.30
12125;DHT22;6126;57.908;16.490;2023-05-07T10:37:15;12.30;68.30
12125;DHT22;6126;57.908;16.490;2023-05-07T10:39:42;12.10;67.90
12125;DHT22;6126;57.908;16.490;2023-05-07T10:42:09;11.80;67.40
12125;DHT22;6126;57.908;16.490;2023-05-07T10:44:36;12.00;67.30
12125;DHT22;6126;57.908;16.490;2023-05-07T10:47:09;12.10;67.40
12125;DHT22;6126;57.908;16.490;2023-05-07T10:52:17;12.30;67.10
12125;DHT22;6126;57.908;16.490;2023-05-07T10:54:47;12.30;67.00
12125;DHT22;6126;57.908;16.490;2023-05-07T10:59:57;12.00;66.50
12125;DHT22;6126;57.908;16.490;2023-05-07T11:02:23;12.20;66.70
12125;DHT22;6126;57.908;16.490;2023-05-07T11:05:25;12.20;66.70
12125;DHT22;6126;57.908;16.490;2023-05-07T11:07:59;12.00;66.30
12125;DHT22;6126;57.908;16.490;2023-05-07T11:13:41;12.00;66.10
12125;DHT22;6126;57.908;16.490;2023-05-07T11:16:25;11.80;65.90
12125;DHT22;6126;57.908;16.490;2023-05-07T11:18:54;12.20;66.30
12125;DHT22;6126;57.908;16.490;2023-05-07T11:21:33;12.00;65.90
12125;DHT22;6126;57.908;16.490;2023-05-07T11:24:02;12.20;66.00
12125;DHT22;6126;57.908;16.490;2023-05-07T11:26:32;12.10;65.80
12125;DHT22;6126;57.908;16.490;2023-05-07T11:29:18;12.00;65.30
12125;DHT22;6126;57.908;16.490;2023-05-07T11:31:57;11.80;65.00
12125;DHT22;6126;57.908;16.490;2023-05-07T11:34:26;11.80;65.10
12125;DHT22;6126;57.908;16.490;2023-05-07T11:36:53;12.10;65.50
12125;DHT22;6126;57.908;16.490;2023-05-07T11:39:30;11.80;65.20
12125;DHT22;6126;57.908;16.490;2023-05-07T11:41:59;11.60;65.00
12125;DHT22;6126;57.908;16.490;2023-05-07T11:44:38;11.70;65.00
12125;DHT22;6126;57.908;16.490;2023-05-07T11:47:08;11.70;65.00
12125;DHT22;6126;57.908;16.490;2023-05-07T11:49:35;11.60;65.00
12125;DHT22;6126;57.908;16.490;2023-05-07T11:52:01;11.80;65.10
12125;DHT22;6126;57.908;16.490;2023-05-07T11:54:35;11.60;64.80
12125;DHT22;6126;57.908;16.490;2023-05-07T11:57:03;11.90;65.00
12125;DHT22;6126;57.908;16.490;2023-05-07T11:59:29;11.70;64.70
12125;DHT22;6126;57.908;16.490;2023-05-07T12:01:58;11.60;64.60
12125;DHT22;6126;57.908;16.490;2023-05-07T12:04:30;11.60;64.50
12125;DHT22;6126;57.908;16.490;2023-05-07T12:06:55;11.80;64.70
12125;DHT22;6126;57.908;16.490;2023-05-07T12:09:21;11.80;64.70
12125;DHT22;6126;57.908;16.490;2023-05-07T12:11:48;11.70;64.40
12125;DHT22;6126;57.908;16.490;2023-05-07T12:14:14;12.00;64.60
12125;DHT22;6126;57.908;16.490;2023-05-07T12:16:44;12.10;64.50
12125;DHT22;6126;57.908;16.490;2023-05-07T12:19:11;11.70;64.00
12125;DHT22;6126;57.908;16.490;2023-05-07T12:21:40;11.90;64.10
12125;DHT22;6126;57.908;16.490;2023-05-07T12:24:07;12.20;63.90
12125;DHT22;6126;57.908;16.490;2023-05-07T12:26:40;12.00;63.40
12125;DHT22;6126;57.908;16.490;2023-05-07T12:29:06;12.30;63.50
12125;DHT22;6126;57.908;16.490;2023-05-07T12:31:33;12.20;63.20
12125;DHT22;6126;57.908;16.490;2023-05-07T12:33:59;12.20;63.00
12125;DHT22;6126;57.908;16.490;2023-05-07T12:36:25;12.00;62.60
12125;DHT22;6126;57.908;16.490;2023-05-07T12:38:51;12.20;62.60
12125;DHT22;6126;57.908;16.490;2023-05-07T12:41:17;12.10;62.20
12125;DHT22;6126;57.908;16.490;2023-05-07T12:43:44;12.40;62.20
12125;DHT22;6126;57.908;16.490;2023-05-07T12:46:11;12.30;61.90
12125;DHT22;6126;57.908;16.490;2023-05-07T12:48:44;12.40;62.00
12125;DHT22;6126;57.908;16.490;2023-05-07T12:51:11;12.40;61.70
12125;DHT22;6126;57.908;16.490;2023-05-07T12:53:42;12.50;61.40
12125;DHT22;6126;57.908;16.490;2023-05-07T12:56:09;12.60;61.30
12125;DHT22;6126;57.908;16.490;2023-05-07T12:58:35;12.40;60.90
12125;DHT22;6126;57.908;16.490;2023-05-07T13:01:05;12.70;60.90
12125;DHT22;6126;57.908;16.490;2023-05-07T13:03:37;12.80;60.70
12125;DHT22;6126;57.908;16.490;2023-05-07T13:06:06;12.70;60.30
12125;DHT22;6126;57.908;16.490;2023-05-07T13:08:39;12.80;60.30
12125;DHT22;6126;57.908;16.490;2023-05-07T13:11:07;12.80;60.10
12125;DHT22;6126;57.908;16.490;2023-05-07T13:13:35;13.00;60.20
12125;DHT22;6126;57.908;16.490;2023-05-07T13:16:04;13.00;60.10
12125;DHT22;6126;57.908;16.490;2023-05-07T13:18:32;12.80;59.90
12125;DHT22;6126;57.908;16.490;2023-05-07T13:20:59;12.90;60.00
12125;DHT22;6126;57.908;16.490;2023-05-07T13:23:26;12.90;60.00
12125;DHT22;6126;57.908;16.490;2023-05-07T13:25:53;12.80;59.80
12125;DHT22;6126;57.908;16.490;2023-05-07T13:28:23;13.10;60.00
12125;DHT22;6126;57.908;16.490;2023-05-07T13:30:50;12.60;59.60
12125;DHT22;6126;57.908;16.490;2023-05-07T13:33:17;12.60;59.50
12125;DHT22;6126;57.908;16.490;2023-05-07T13:35:44;13.00;59.70
12125;DHT22;6126;57.908;16.490;2023-05-07T13:38:10;13.00;59.60
12125;DHT22;6126;57.908;16.490;2023-05-07T13:40:36;12.80;59.20
12125;DHT22;6126;57.908;16.490;2023-05-07T13:43:02;13.00;59.20
12125;DHT22;6126;57.908;16.490;2023-05-07T13:45:30;12.90;59.00
12125;DHT22;6126;57.908;16.490;2023-05-07T13:47:57;13.20;59.30
12125;DHT22;6126;57.908;16.490;2023-05-07T13:50:23;13.10;59.20
12125;DHT22;6126;57.908;16.490;2023-05-07T13:52:49;13.10;59.00
12125;DHT22;6126;57.908;16.490;2023-05-07T13:55:18;13.20;58.90
12125;DHT22;6126;57.908;16.490;2023-05-07T13:57:55;13.40;58.80
12125;DHT22;6126;57.908;16.490;2023-05-07T14:00:22;13.30;58.60
12125;DHT22;6126;57.908;16.490;2023-05-07T14:02:49;13.10;58.30
12125;DHT22;6126;57.908;16.490;2023-05-07T14:05:15;13.20;58.20
12125;DHT22;6126;57.908;16.490;2023-05-07T14:07:41;13.20;58.10
12125;DHT22;6126;57.908;16.490;2023-05-07T14:10:07;13.20;58.00
12125;DHT22;6126;57.908;16.490;2023-05-07T14:12:33;13.20;57.90
12125;DHT22;6126;57.908;16.490;2023-05-07T14:15:00;13.30;57.80
12125;DHT22;6126;57.908;16.490;2023-05-07T14:17:26;13.10;57.50
12125;DHT22;6126;57.908;16.490;2023-05-07T14:19:53;13.40;57.60
12125;DHT22;6126;57.908;16.490;2023-05-07T14:22:22;13.40;57.50
12125;DHT22;6126;57.908;16.490;2023-05-07T14:24:49;13.40;57.40
12125;DHT22;6126;57.908;16.490;2023-05-07T14:27:16;13.10;57.10
12125;DHT22;6126;57.908;16.490;2023-05-07T14:29:42;13.50;57.20
12125;DHT22;6126;57.908;16.490;2023-05-07T14:32:08;13.50;57.10
12125;DHT22;6126;57.908;16.490;2023-05-07T14:34:34;13.40;56.80
12125;DHT22;6126;57.908;16.490;2023-05-07T14:37:00;13.30;56.60
12125;DHT22;6126;57.908;16.490;2023-05-07T14:39:26;13.60;56.70
12125;DHT22;6126;57.908;16.490;2023-05-07T14:41:52;13.40;56.50
12125;DHT22;6126;57.908;16.490;2023-05-07T14:44:20;13.40;56.50
12125;DHT22;6126;57.908;16.490;2023-05-07T14:46:46;13.60;56.70
12125;DHT22;6126;57.908;16.490;2023-05-07T14:49:14;13.40;56.60
12125;DHT22;6126;57.908;16.490;2023-05-07T14:51:44;13.40;56.70
12125;DHT22;6126;57.908;16.490;2023-05-07T14:54:11;13.00;56.40
12125;DHT22;6126;57.908;16.490;2023-05-07T14:56:37;12.90;56.30
12125;DHT22;6126;57.908;16.490;2023-05-07T14:59:03;13.00;56.60
12125;DHT22;6126;57.908;16.490;2023-05-07T15:01:29;12.90;56.60
12125;DHT22;6126;57.908;16.490;2023-05-07T15:03:55;12.90;56.60
12125;DHT22;6126;57.908;16.490;2023-05-07T15:06:21;13.00;56.80
12125;DHT22;6126;57.908;16.490;2023-05-07T15:08:47;12.60;56.50
12125;DHT22;6126;57.908;16.490;2023-05-07T15:11:16;12.80;56.70
12125;DHT22;6126;57.908;16.490;2023-05-07T15:13:42;12.50;56.50
12125;DHT22;6126;57.908;16.490;2023-05-07T15:16:08;12.60;56.60
12125;DHT22;6126;57.908;16.490;2023-05-07T15:18:34;12.40;56.60
12125;DHT22;6126;57.908;16.490;2023-05-07T15:21:00;12.40;56.70
12125;DHT22;6126;57.908;16.490;2023-05-07T15:23:26;12.40;56.70
12125;DHT22;6126;57.908;16.490;2023-05-07T15:25:52;12.60;56.80
12125;DHT22;6126;57.908;16.490;2023-05-07T15:28:18;12.40;56.70
12125;DHT22;6126;57.908;16.490;2023-05-07T15:30:45;12.50;56.80
12125;DHT22;6126;57.908;16.490;2023-05-07T15:33:11;12.40;56.70
12125;DHT22;6126;57.908;16.490;2023-05-07T15:35:37;12.60;56.80
12125;DHT22;6126;57.908;16.490;2023-05-07T15:38:03;12.30;56.50
12125;DHT22;6126;57.908;16.490;2023-05-07T15:40:30;12.60;56.70
12125;DHT22;6126;57.908;16.490;2023-05-07T15:42:56;12.50;56.60
12125;DHT22;6126;57.908;16.490;2023-05-07T15:45:23;12.30;56.40
12125;DHT22;6126;57.908;16.490;2023-05-07T15:47:49;12.50;56.60